Time;durP1;ratioP1;P1;durP2;ratioP2;P2;SDS_P1;SDS_P2;PMS_P1;PMS_P2;Temp;Humidity;BMP_temperature;BMP_pressure;BME280_temperature;BME280_humidity;BME280_pressure;Samples;Min_cycle;Max_cycle;Signal;HPM_P1;HPM_P2
2021/03/10 00:01:09;;;;;;;18.43;14.20;;;;;;;;;;5109352;28;20171;-42
2021/03/10 00:03:34;;;;;;;20.67;16.27;;;;;;;;;;5111427;28;20636;-43
2021/03/10 00:05:59;;;;;;;18.00;14.73;;;;;;;;;;5109958;28;20162;-43
2021/03/10 00:08:24;;;;;;;18.30;13.50;;;;;;;;;;5110434;28;20793;-43
2021/03/10 00:10:49;;;;;;;21.33;16.40;;;;;;;;;;5111135;28;20169;-41
2021/03/10 00:13:14;;;;;;;20.20;16.00;;;;;;;;;;5110661;28;20171;-42
2021/03/10 00:15:40;;;;;;;19.23;14.95;;;;;;;;;;5110176;28;20238;-43
2021/03/10 00:18:05;;;;;;;20.92;15.43;;;;;;;;;;5110524;28;20660;-43
2021/03/10 00:20:30;;;;;;;19.33;14.50;;;;;;;;;;5110502;28;20204;-43
2021/03/10 00:22:55;;;;;;;20.50;16.50;;;;;;;;;;5111080;28;20246;-42
2021/03/10 00:25:21;;;;;;;19.20;14.77;;;;;;;;;;5110070;28;20211;-42
2021/03/10 00:27:46;;;;;;;17.38;14.13;;;;;;;;;;5109476;28;20250;-42
2021/03/10 00:30:11;;;;;;;18.43;15.40;;;;;;;;;;5108550;28;20177;-43
2021/03/10 00:32:37;;;;;;;19.97;16.20;;;;;;;;;;5110795;28;20174;-43
2021/03/10 00:35:02;;;;;;;19.33;15.43;;;;;;;;;;5110431;28;20167;-42
2021/03/10 00:37:28;;;;;;;20.40;15.40;;;;;;;;;;5109898;28;20221;-42
2021/03/10 00:39:53;;;;;;;20.03;15.37;;;;;;;;;;5109728;28;20198;-42
2021/03/10 00:42:18;;;;;;;20.50;15.60;;;;;;;;;;5110431;28;20162;-43
2021/03/10 00:44:44;;;;;;;18.77;15.17;;;;;;;;;;5109919;28;20173;-42
2021/03/10 00:47:09;;;;;;;18.70;14.50;;;;;;;;;;5110193;28;20229;-43
2021/03/10 00:49:35;;;;;;;19.37;14.17;;;;;;;;;;5109499;28;20177;-43
2021/03/10 00:52:00;;;;;;;19.33;14.40;;;;;;;;;;5109833;28;20212;-43
2021/03/10 00:54:25;;;;;;;20.63;15.30;;;;;;;;;;5109505;28;20261;-43
2021/03/10 00:56:50;;;;;;;19.70;15.30;;;;;;;;;;5109991;28;20638;-44
2021/03/10 00:59:16;;;;;;;19.43;14.93;;;;;;;;;;5109319;28;20243;-43
2021/03/10 01:01:41;;;;;;;20.20;15.33;;;;;;;;;;5110026;28;20169;-41
2021/03/10 01:04:06;;;;;;;19.10;15.70;;;;;;;;;;5109647;28;20597;-42
2021/03/10 01:06:31;;;;;;;17.90;14.33;;;;;;;;;;5109725;28;20173;-43
2021/03/10 01:08:56;;;;;;;21.57;14.67;;;;;;;;;;5108988;28;20173;-43
2021/03/10 01:11:22;;;;;;;21.00;15.20;;;;;;;;;;5109753;28;20180;-42
2021/03/10 01:13:47;;;;;;;21.10;15.97;;;;;;;;;;5121246;27;20180;-42
2021/03/10 01:16:12;;;;;;;17.83;14.60;;;;;;;;;;5108862;28;20184;-43
2021/03/10 01:18:38;;;;;;;19.97;14.90;;;;;;;;;;5108258;28;20296;-42
2021/03/10 01:21:03;;;;;;;20.13;15.47;;;;;;;;;;5108951;28;20282;-50
2021/03/10 01:23:28;;;;;;;23.33;14.40;;;;;;;;;;5107477;28;20192;-42
2021/03/10 01:25:54;;;;;;;16.33;14.40;;;;;;;;;;5109363;28;20178;-43
2021/03/10 01:28:19;;;;;;;18.30;14.43;;;;;;;;;;5109315;28;20173;-43
2021/03/10 01:30:44;;;;;;;20.83;15.63;;;;;;;;;;5108421;28;20588;-42
2021/03/10 01:33:10;;;;;;;19.27;14.90;;;;;;;;;;5107253;28;20185;-43
2021/03/10 01:35:35;;;;;;;20.33;16.10;;;;;;;;;;5112133;27;20373;-43
2021/03/10 01:38:00;;;;;;;19.87;14.50;;;;;;;;;;5109103;28;20283;-43
2021/03/10 01:40:25;;;;;;;18.07;15.40;;;;;;;;;;5108648;28;20204;-43
2021/03/10 01:42:51;;;;;;;22.00;14.90;;;;;;;;;;5108058;28;20170;-43
2021/03/10 01:45:16;;;;;;;20.37;15.20;;;;;;;;;;5108787;28;20218;-43
2021/03/10 01:47:44;;;;;;;20.13;15.43;;;;;;;;;;5101207;28;20218;-43
2021/03/10 01:50:10;;;;;;;19.37;14.77;;;;;;;;;;5104372;28;20575;-43
2021/03/10 01:52:35;;;;;;;25.03;15.97;;;;;;;;;;5108710;28;20587;-47
2021/03/10 01:55:01;;;;;;;19.63;14.27;;;;;;;;;;5108454;28;20315;-43
2021/03/10 01:57:26;;;;;;;19.10;15.47;;;;;;;;;;5108567;28;21221;-43
2021/03/10 01:59:51;;;;;;;19.07;14.70;;;;;;;;;;5108499;28;20543;-43
2021/03/10 02:02:16;;;;;;;22.73;16.37;;;;;;;;;;5107492;28;20180;-43
2021/03/10 02:04:42;;;;;;;20.10;15.33;;;;;;;;;;5108527;28;20154;-43
2021/03/10 02:07:16;;;;;;;21.93;16.23;;;;;;;;;;5108404;28;20171;-43
2021/03/10 02:10:07;;;;;;;21.60;16.83;;;;;;;;;;5108581;28;20171;-44
2021/03/10 02:12:35;;;;;;;23.83;15.80;;;;;;;;;;5107586;28;20594;-42
2021/03/10 02:15:04;;;;;;;20.40;15.50;;;;;;;;;;5107919;28;20609;-41
2021/03/10 02:17:32;;;;;;;21.87;14.67;;;;;;;;;;5108472;28;20622;-43
2021/03/10 02:20:03;;;;;;;19.73;14.93;;;;;;;;;;5108212;28;20589;-43
2021/03/10 02:22:47;;;;;;;22.77;15.40;;;;;;;;;;5108081;28;20959;-42
2021/03/10 02:25:20;;;;;;;21.60;16.07;;;;;;;;;;5107168;28;20666;-42
2021/03/10 02:27:52;;;;;;;19.70;15.00;;;;;;;;;;5107027;28;21096;-42
2021/03/10 02:30:19;;;;;;;23.10;15.10;;;;;;;;;;5107363;28;20720;-42
2021/03/10 02:32:49;;;;;;;20.50;16.03;;;;;;;;;;5108615;28;20594;-42
2021/03/10 02:35:15;;;;;;;16.80;14.50;;;;;;;;;;5107635;28;20654;-43
2021/03/10 02:37:42;;;;;;;17.67;14.27;;;;;;;;;;5108003;28;20639;-43
2021/03/10 02:40:09;;;;;;;19.40;14.53;;;;;;;;;;5107210;28;20189;-43
2021/03/10 02:42:35;;;;;;;21.13;15.40;;;;;;;;;;5106991;28;20622;-44
2021/03/10 02:45:01;;;;;;;18.90;15.57;;;;;;;;;;5107033;28;20622;-43
2021/03/10 02:47:27;;;;;;;18.33;15.17;;;;;;;;;;5107012;28;20671;-42
2021/03/10 02:49:53;;;;;;;22.23;14.87;;;;;;;;;;5107903;28;20609;-42
2021/03/10 02:52:18;;;;;;;25.50;16.37;;;;;;;;;;5107677;28;20203;-44
2021/03/10 02:54:44;;;;;;;19.90;15.67;;;;;;;;;;5110777;28;20650;-43
2021/03/10 02:57:09;;;;;;;19.50;14.00;;;;;;;;;;5112371;28;20203;-43
2021/03/10 02:59:34;;;;;;;22.33;15.40;;;;;;;;;;5112007;28;20199;-43
2021/03/10 03:01:59;;;;;;;17.20;14.80;;;;;;;;;;5111133;28;20250;-43
2021/03/10 03:04:24;;;;;;;19.90;13.97;;;;;;;;;;5110340;28;20181;-42
2021/03/10 03:06:49;;;;;;;21.27;15.20;;;;;;;;;;5110117;28;20251;-43
2021/03/10 03:09:15;;;;;;;18.97;15.00;;;;;;;;;;5111984;28;20180;-43
2021/03/10 03:11:40;;;;;;;20.67;15.00;;;;;;;;;;5111572;28;20175;-43
2021/03/10 03:14:05;;;;;;;19.17;15.10;;;;;;;;;;5110989;28;20597;-43
2021/03/10 03:16:31;;;;;;;20.60;15.67;;;;;;;;;;5111516;28;20175;-44
2021/03/10 03:18:56;;;;;;;20.23;15.70;;;;;;;;;;5110933;28;20286;-43
2021/03/10 03:21:21;;;;;;;19.77;14.48;;;;;;;;;;5107405;28;20203;-43
2021/03/10 03:23:47;;;;;;;18.80;15.07;;;;;;;;;;5111317;28;20595;-43
2021/03/10 03:26:15;;;;;;;20.47;15.30;;;;;;;;;;5111045;28;20217;-43
2021/03/10 03:28:40;;;;;;;19.97;15.67;;;;;;;;;;5109822;28;20685;-43
2021/03/10 03:31:05;;;;;;;19.80;13.23;;;;;;;;;;5110863;28;20634;-43
2021/03/10 03:33:30;;;;;;;20.10;15.57;;;;;;;;;;5111691;28;20255;-42
2021/03/10 03:35:56;;;;;;;22.17;15.10;;;;;;;;;;5111143;28;20192;-42
2021/03/10 03:38:22;;;;;;;24.20;15.83;;;;;;;;;;5110942;28;20316;-42
2021/03/10 03:40:49;;;;;;;21.90;15.40;;;;;;;;;;5120427;27;20340;-43
2021/03/10 03:43:14;;;;;;;20.53;15.80;;;;;;;;;;5111229;28;20600;-42
2021/03/10 03:45:39;;;;;;;24.40;16.20;;;;;;;;;;5110583;28;20601;-42
2021/03/10 03:48:04;;;;;;;17.70;14.03;;;;;;;;;;5109716;28;20177;-43
2021/03/10 03:50:30;;;;;;;23.20;15.30;;;;;;;;;;5107433;28;20217;-42
2021/03/10 03:52:55;;;;;;;17.43;14.37;;;;;;;;;;5110961;28;20191;-42
2021/03/10 03:55:20;;;;;;;18.80;14.80;;;;;;;;;;5110150;27;20226;-43
2021/03/10 03:57:46;;;;;;;21.87;15.67;;;;;;;;;;5110884;28;20200;-43
2021/03/10 04:00:14;;;;;;;22.70;16.10;;;;;;;;;;5111059;28;20175;-43
2021/03/10 04:02:39;;;;;;;23.20;16.27;;;;;;;;;;5110600;28;20193;-42
2021/03/10 04:05:05;;;;;;;20.65;14.57;;;;;;;;;;5110608;28;21075;-43
2021/03/10 04:07:30;;;;;;;21.57;15.63;;;;;;;;;;5110491;28;20181;-42
2021/03/10 04:09:55;;;;;;;19.13;16.30;;;;;;;;;;5110340;28;20176;-43
2021/03/10 04:12:21;;;;;;;21.48;17.10;;;;;;;;;;5110658;28;20177;-43
2021/03/10 04:14:46;;;;;;;22.07;15.60;;;;;;;;;;5111540;28;20218;-43
2021/03/10 04:17:11;;;;;;;23.87;15.97;;;;;;;;;;5107119;28;20183;-42
2021/03/10 04:19:36;;;;;;;21.20;14.67;;;;;;;;;;5111290;28;20178;-43
2021/03/10 04:22:01;;;;;;;19.67;13.97;;;;;;;;;;5112167;27;20164;-43
2021/03/10 04:24:27;;;;;;;19.27;14.17;;;;;;;;;;5109751;28;20625;-43
2021/03/10 04:26:52;;;;;;;21.30;16.10;;;;;;;;;;5109799;28;20562;-41
2021/03/10 04:29:17;;;;;;;24.17;16.57;;;;;;;;;;5109855;28;20282;-41
2021/03/10 04:31:42;;;;;;;23.23;16.80;;;;;;;;;;5110313;28;20704;-43
2021/03/10 04:34:07;;;;;;;17.47;15.53;;;;;;;;;;5110150;28;20183;-43
2021/03/10 04:36:32;;;;;;;23.23;16.40;;;;;;;;;;5106996;28;20815;-42
2021/03/10 04:38:58;;;;;;;20.52;16.10;;;;;;;;;;5107936;28;20210;-43
2021/03/10 04:41:23;;;;;;;21.70;15.53;;;;;;;;;;5105979;28;20648;-44
2021/03/10 04:43:48;;;;;;;18.70;15.40;;;;;;;;;;5104013;28;20167;-46
2021/03/10 04:46:13;;;;;;;21.43;16.17;;;;;;;;;;5106968;28;20176;-42
2021/03/10 04:48:38;;;;;;;20.63;16.88;;;;;;;;;;5107126;28;20183;-42
2021/03/10 04:51:03;;;;;;;19.60;14.90;;;;;;;;;;5106943;28;20287;-42
2021/03/10 04:53:29;;;;;;;19.80;15.50;;;;;;;;;;5105176;28;20228;-42
2021/03/10 04:55:54;;;;;;;20.00;14.70;;;;;;;;;;5106766;28;20173;-41
2021/03/10 04:58:19;;;;;;;18.07;15.30;;;;;;;;;;5106303;28;20202;-43
2021/03/10 05:00:44;;;;;;;22.60;15.52;;;;;;;;;;5106539;28;20183;-42
2021/03/10 05:03:09;;;;;;;21.03;15.13;;;;;;;;;;5104386;28;20672;-43
2021/03/10 05:05:34;;;;;;;26.77;16.73;;;;;;;;;;5089873;28;20642;-43
2021/03/10 05:08:00;;;;;;;19.87;15.40;;;;;;;;;;5103204;28;20487;-42
2021/03/10 05:10:25;;;;;;;22.80;17.10;;;;;;;;;;5105857;28;20264;-43
2021/03/10 05:12:50;;;;;;;20.80;15.50;;;;;;;;;;5106479;28;20648;-43
2021/03/10 05:15:15;;;;;;;19.03;15.20;;;;;;;;;;5108887;28;20685;-42
2021/03/10 05:17:41;;;;;;;20.67;15.13;;;;;;;;;;5107401;28;20675;-43
2021/03/10 05:20:07;;;;;;;23.13;15.57;;;;;;;;;;5109516;28;20581;-43
2021/03/10 05:22:32;;;;;;;21.10;14.90;;;;;;;;;;5107569;28;20175;-43
2021/03/10 05:24:57;;;;;;;20.50;16.20;;;;;;;;;;5101749;28;20704;-44
2021/03/10 05:27:23;;;;;;;18.85;14.73;;;;;;;;;;5102767;28;20182;-43
2021/03/10 05:29:49;;;;;;;21.10;16.10;;;;;;;;;;5108353;27;20639;-42
2021/03/10 05:32:14;;;;;;;20.30;15.93;;;;;;;;;;5106579;28;20599;-42
2021/03/10 05:34:43;;;;;;;25.10;16.00;;;;;;;;;;5104538;28;20369;-43
2021/03/10 05:37:08;;;;;;;19.73;15.07;;;;;;;;;;5109178;27;20213;-43
2021/03/10 05:39:33;;;;;;;21.67;15.47;;;;;;;;;;5100102;28;22106;-42
2021/03/10 05:41:59;;;;;;;18.10;14.80;;;;;;;;;;5103438;28;20645;-42
2021/03/10 05:44:25;;;;;;;19.97;13.90;;;;;;;;;;5105308;28;20176;-43
2021/03/10 05:46:50;;;;;;;17.63;15.53;;;;;;;;;;5103634;28;20601;-43
2021/03/10 05:49:15;;;;;;;18.53;14.43;;;;;;;;;;5105585;28;20622;-43
2021/03/10 05:51:41;;;;;;;19.38;15.68;;;;;;;;;;5103412;28;20179;-48
2021/03/10 05:54:06;;;;;;;17.23;14.47;;;;;;;;;;5104591;28;20268;-44
2021/03/10 05:56:32;;;;;;;19.97;15.63;;;;;;;;;;5104378;28;20179;-41
2021/03/10 05:58:58;;;;;;;23.13;16.03;;;;;;;;;;5103028;28;20209;-43
2021/03/10 06:01:23;;;;;;;19.00;15.00;;;;;;;;;;5101444;28;20172;-43
2021/03/10 06:03:56;;;;;;;22.63;16.87;;;;;;;;;;5102542;28;20653;-44
2021/03/10 06:06:21;;;;;;;22.00;16.50;;;;;;;;;;5105574;28;20269;-43
2021/03/10 06:08:47;;;;;;;18.73;14.90;;;;;;;;;;5104596;28;20722;-43
2021/03/10 06:11:22;;;;;;;18.43;14.20;;;;;;;;;;5104030;28;20720;-43
2021/03/10 06:13:47;;;;;;;20.23;15.33;;;;;;;;;;5105291;28;20187;-42
2021/03/10 06:16:18;;;;;;;17.23;14.20;;;;;;;;;;5102907;28;20610;-43
2021/03/10 06:18:44;;;;;;;20.63;14.83;;;;;;;;;;5106114;27;20202;-42
2021/03/10 06:21:10;;;;;;;22.87;14.70;;;;;;;;;;5107495;27;20963;-41
2021/03/10 06:23:36;;;;;;;19.40;15.73;;;;;;;;;;5107981;28;20700;-43
2021/03/10 06:26:02;;;;;;;24.37;15.43;;;;;;;;;;5106831;28;21151;-42
2021/03/10 06:28:35;;;;;;;19.30;14.93;;;;;;;;;;5107647;28;21141;-43
2021/03/10 06:31:00;;;;;;;19.40;15.23;;;;;;;;;;5109073;28;20572;-43
2021/03/10 06:33:25;;;;;;;18.57;15.27;;;;;;;;;;5107790;28;20664;-43
2021/03/10 06:35:50;;;;;;;18.70;14.30;;;;;;;;;;5108240;28;20240;-43
2021/03/10 06:38:16;;;;;;;19.25;14.02;;;;;;;;;;5108088;28;20285;-43
2021/03/10 06:40:49;;;;;;;19.60;15.97;;;;;;;;;;5108009;28;20667;-43
2021/03/10 06:43:14;;;;;;;17.83;14.90;;;;;;;;;;5107564;28;20599;-43
2021/03/10 06:45:39;;;;;;;20.47;15.57;;;;;;;;;;5108307;28;20924;-41
2021/03/10 06:48:14;;;;;;;20.77;15.27;;;;;;;;;;5107974;28;20260;-43
2021/03/10 06:50:39;;;;;;;21.97;17.13;;;;;;;;;;5108149;28;20177;-43
2021/03/10 06:53:05;;;;;;;19.30;15.82;;;;;;;;;;5108106;28;20582;-43
2021/03/10 06:55:56;;;;;;;21.47;15.33;;;;;;;;;;5107459;28;20621;-42
2021/03/10 06:58:22;;;;;;;16.47;14.60;;;;;;;;;;5103048;28;20212;-41
2021/03/10 07:00:47;;;;;;;21.03;15.90;;;;;;;;;;5108821;28;20913;-42
2021/03/10 07:03:13;;;;;;;22.20;15.53;;;;;;;;;;5104065;28;20201;-43
2021/03/10 07:05:39;;;;;;;18.00;15.40;;;;;;;;;;5104161;28;20170;-43
2021/03/10 07:08:05;;;;;;;19.70;15.17;;;;;;;;;;5104490;28;21314;-44
2021/03/10 07:10:30;;;;;;;22.93;16.00;;;;;;;;;;5104491;28;20176;-44
2021/03/10 07:12:56;;;;;;;19.52;15.00;;;;;;;;;;5105247;28;20603;-43
2021/03/10 07:15:21;;;;;;;23.50;15.97;;;;;;;;;;5097257;28;20263;-43
2021/03/10 07:17:48;;;;;;;18.17;14.87;;;;;;;;;;5104370;28;20651;-41
2021/03/10 07:20:13;;;;;;;17.30;14.77;;;;;;;;;;5104906;28;20569;-41
2021/03/10 07:22:51;;;;;;;17.70;14.83;;;;;;;;;;5101515;28;20598;-41
2021/03/10 07:25:27;;;;;;;18.70;14.77;;;;;;;;;;5104161;28;20275;-43
2021/03/10 07:27:55;;;;;;;19.43;15.10;;;;;;;;;;5104067;28;20662;-42
2021/03/10 07:30:31;;;;;;;22.63;15.70;;;;;;;;;;5104106;28;20592;-42
2021/03/10 07:33:02;;;;;;;20.30;16.80;;;;;;;;;;5103041;28;20587;-43
2021/03/10 07:35:27;;;;;;;19.83;15.97;;;;;;;;;;5104287;28;21368;-41
2021/03/10 07:37:53;;;;;;;18.70;14.87;;;;;;;;;;5105004;28;20681;-43
2021/03/10 07:40:18;;;;;;;22.10;16.03;;;;;;;;;;5105741;28;20194;-43
2021/03/10 07:42:56;;;;;;;20.67;15.77;;;;;;;;;;5107738;28;20185;-43
2021/03/10 07:45:22;;;;;;;19.60;15.07;;;;;;;;;;5108269;28;20173;-43
2021/03/10 07:47:48;;;;;;;20.20;15.37;;;;;;;;;;5108026;28;20965;-43
2021/03/10 07:50:14;;;;;;;23.30;15.97;;;;;;;;;;5108387;28;20590;-43
2021/03/10 07:52:48;;;;;;;19.60;16.13;;;;;;;;;;5107709;28;20599;-42
2021/03/10 07:55:13;;;;;;;19.60;15.90;;;;;;;;;;5107544;28;20700;-43
2021/03/10 07:57:47;;;;;;;21.60;16.90;;;;;;;;;;5107839;28;20695;-43
2021/03/10 08:00:13;;;;;;;20.20;17.40;;;;;;;;;;5105955;28;20359;-48
2021/03/10 08:02:42;;;;;;;22.67;16.63;;;;;;;;;;5108470;28;20699;-43
2021/03/10 08:05:18;;;;;;;20.07;16.13;;;;;;;;;;5109414;28;21253;-43
2021/03/10 08:07:43;;;;;;;20.70;16.47;;;;;;;;;;5110072;27;20610;-43
2021/03/10 08:10:08;;;;;;;18.70;16.02;;;;;;;;;;5110509;28;20603;-43
2021/03/10 08:12:37;;;;;;;21.00;16.33;;;;;;;;;;5110377;27;20190;-43
2021/03/10 08:15:06;;;;;;;22.43;17.07;;;;;;;;;;5110442;28;20178;-43
2021/03/10 08:17:31;;;;;;;20.40;16.60;;;;;;;;;;5110039;28;20590;-43
2021/03/10 08:20:00;;;;;;;19.17;15.80;;;;;;;;;;5110364;28;21168;-43
2021/03/10 08:22:26;;;;;;;23.37;16.47;;;;;;;;;;5109562;28;20560;-43
2021/03/10 08:24:52;;;;;;;23.17;18.20;;;;;;;;;;5109887;27;20588;-43
2021/03/10 08:27:27;;;;;;;20.80;17.83;;;;;;;;;;5105336;28;20933;-43
2021/03/10 08:29:52;;;;;;;21.83;17.10;;;;;;;;;;5111170;28;20587;-42
2021/03/10 08:32:25;;;;;;;22.97;17.77;;;;;;;;;;5109832;28;20583;-43
2021/03/10 08:34:50;;;;;;;19.53;16.60;;;;;;;;;;5108645;28;20573;-43
2021/03/10 08:37:15;;;;;;;21.63;17.57;;;;;;;;;;5111171;28;20579;-42
2021/03/10 08:39:44;;;;;;;19.70;15.67;;;;;;;;;;5110570;28;20484;-42
2021/03/10 08:42:10;;;;;;;23.83;18.10;;;;;;;;;;5110477;28;20686;-43
2021/03/10 08:44:42;;;;;;;22.40;18.67;;;;;;;;;;5110500;28;20570;-41
2021/03/10 08:47:12;;;;;;;24.10;18.60;;;;;;;;;;5110768;28;20169;-42
2021/03/10 08:49:37;;;;;;;22.33;18.37;;;;;;;;;;5108083;28;20575;-43
2021/03/10 08:52:02;;;;;;;21.30;17.87;;;;;;;;;;5107571;28;21456;-43
2021/03/10 08:54:27;;;;;;;21.35;18.05;;;;;;;;;;5110068;28;20249;-43
2021/03/10 08:56:52;;;;;;;23.33;18.00;;;;;;;;;;5110288;28;20609;-43
2021/03/10 08:59:18;;;;;;;21.23;17.80;;;;;;;;;;5110470;28;20794;-44
2021/03/10 09:01:50;;;;;;;22.20;18.77;;;;;;;;;;5110008;28;20174;-43
2021/03/10 09:04:25;;;;;;;24.17;19.50;;;;;;;;;;5110364;28;20170;-42
2021/03/10 09:06:51;;;;;;;20.93;18.23;;;;;;;;;;5110075;28;20572;-43
2021/03/10 09:09:16;;;;;;;21.83;18.37;;;;;;;;;;5110267;28;20572;-43
2021/03/10 09:11:42;;;;;;;23.70;18.70;;;;;;;;;;5110005;28;20588;-44
2021/03/10 09:14:07;;;;;;;22.30;18.03;;;;;;;;;;5110026;28;20663;-43
2021/03/10 09:16:32;;;;;;;25.70;19.47;;;;;;;;;;5110165;28;20189;-44
2021/03/10 09:18:59;;;;;;;22.97;19.10;;;;;;;;;;5110246;28;20262;-44
2021/03/10 09:21:24;;;;;;;23.30;19.60;;;;;;;;;;5109169;28;20463;-44
2021/03/10 09:23:59;;;;;;;21.05;17.60;;;;;;;;;;5109571;28;20604;-44
2021/03/10 09:26:33;;;;;;;25.27;19.73;;;;;;;;;;5109799;28;20208;-42
2021/03/10 09:29:01;;;;;;;24.13;19.63;;;;;;;;;;5109984;28;20594;-42
2021/03/10 09:31:27;;;;;;;23.07;19.57;;;;;;;;;;5109806;27;20688;-43
2021/03/10 09:33:53;;;;;;;27.27;20.80;;;;;;;;;;5109812;28;20617;-43
2021/03/10 09:36:25;;;;;;;27.80;19.80;;;;;;;;;;5110094;28;20573;-43
2021/03/10 09:38:51;;;;;;;25.67;20.43;;;;;;;;;;5109463;28;20201;-43
2021/03/10 09:41:22;;;;;;;25.87;20.13;;;;;;;;;;5109443;28;21224;-42
2021/03/10 09:43:47;;;;;;;24.23;20.50;;;;;;;;;;5109315;28;20176;-43
2021/03/10 09:46:12;;;;;;;24.00;19.67;;;;;;;;;;5109917;28;20565;-42
2021/03/10 09:48:39;;;;;;;23.38;19.40;;;;;;;;;;5109738;28;20170;-43
2021/03/10 09:51:04;;;;;;;20.10;17.53;;;;;;;;;;5109265;28;20179;-43
2021/03/10 09:53:30;;;;;;;21.27;18.40;;;;;;;;;;5108840;28;20989;-42
2021/03/10 09:56:05;;;;;;;19.50;16.57;;;;;;;;;;5109196;28;20202;-43
2021/03/10 09:58:30;;;;;;;19.30;16.20;;;;;;;;;;5109626;28;20731;-43
2021/03/10 10:00:59;;;;;;;20.13;17.17;;;;;;;;;;5108723;28;20683;-43
2021/03/10 10:03:24;;;;;;;18.27;16.37;;;;;;;;;;5108661;28;20268;-43
2021/03/10 10:05:49;;;;;;;19.73;16.23;;;;;;;;;;5109208;28;20668;-43
2021/03/10 10:08:14;;;;;;;19.83;17.60;;;;;;;;;;5109004;28;20180;-42
2021/03/10 10:10:41;;;;;;;18.00;15.65;;;;;;;;;;5108792;28;20263;-44
2021/03/10 10:13:06;;;;;;;18.60;15.70;;;;;;;;;;5109383;28;20176;-43
2021/03/10 10:15:33;;;;;;;18.57;16.47;;;;;;;;;;5109052;28;21157;-43
2021/03/10 10:17:59;;;;;;;22.00;17.80;;;;;;;;;;5108620;28;20682;-42
2021/03/10 10:20:25;;;;;;;21.80;18.07;;;;;;;;;;5108585;28;20593;-43
2021/03/10 10:22:51;;;;;;;23.57;18.00;;;;;;;;;;5108787;27;20596;-43
2021/03/10 10:25:16;;;;;;;24.10;19.07;;;;;;;;;;5108566;28;20586;-42
2021/03/10 10:27:42;;;;;;;20.13;17.77;;;;;;;;;;5108283;28;20331;-42
2021/03/10 10:30:08;;;;;;;21.63;17.10;;;;;;;;;;5108428;28;20178;-42
2021/03/10 10:32:33;;;;;;;20.00;17.40;;;;;;;;;;5108554;28;20271;-42
2021/03/10 10:34:58;;;;;;;20.30;17.23;;;;;;;;;;5108485;28;20185;-42
2021/03/10 10:37:23;;;;;;;21.63;18.05;;;;;;;;;;5108066;28;20179;-42
2021/03/10 10:39:49;;;;;;;22.38;18.25;;;;;;;;;;5108685;28;20696;-42
2021/03/10 10:42:14;;;;;;;24.40;20.00;;;;;;;;;;5108670;28;20186;-42
2021/03/10 10:44:39;;;;;;;21.07;18.63;;;;;;;;;;5108591;28;20171;-42
2021/03/10 10:47:04;;;;;;;22.47;18.50;;;;;;;;;;5107921;28;20170;-42
2021/03/10 10:49:30;;;;;;;23.77;18.77;;;;;;;;;;5108940;28;20251;-42
2021/03/10 10:51:55;;;;;;;20.00;17.77;;;;;;;;;;5108681;28;20174;-42
2021/03/10 10:54:20;;;;;;;19.63;17.53;;;;;;;;;;5108144;28;20707;-42
2021/03/10 10:56:46;;;;;;;19.77;17.53;;;;;;;;;;5107936;28;20261;-43
2021/03/10 10:59:11;;;;;;;21.80;17.33;;;;;;;;;;5108445;28;20204;-42
2021/03/10 11:01:36;;;;;;;21.50;18.73;;;;;;;;;;5108295;28;20182;-42
2021/03/10 11:04:02;;;;;;;22.20;18.10;;;;;;;;;;5108620;28;20167;-43
2021/03/10 11:06:27;;;;;;;20.90;18.60;;;;;;;;;;5107655;28;20261;-43
2021/03/10 11:08:52;;;;;;;21.08;18.17;;;;;;;;;;5108430;28;20176;-44
2021/03/10 11:11:17;;;;;;;20.40;18.10;;;;;;;;;;5108481;28;20730;-41
2021/03/10 11:13:42;;;;;;;22.90;18.37;;;;;;;;;;5108006;28;20181;-44
2021/03/10 11:16:08;;;;;;;20.53;18.20;;;;;;;;;;5111899;28;20178;-41
2021/03/10 11:18:33;;;;;;;24.07;18.93;;;;;;;;;;5111983;28;20258;-42
2021/03/10 11:20:58;;;;;;;20.73;17.47;;;;;;;;;;5112008;28;20213;-42
2021/03/10 11:23:23;;;;;;;19.20;16.77;;;;;;;;;;5111451;28;20312;-43
2021/03/10 11:25:48;;;;;;;22.90;18.73;;;;;;;;;;5111344;28;20175;-43
2021/03/10 11:28:14;;;;;;;19.50;17.48;;;;;;;;;;5112017;28;20200;-43
2021/03/10 11:30:39;;;;;;;20.23;18.03;;;;;;;;;;5110215;27;20451;-43
2021/03/10 11:33:04;;;;;;;19.10;17.10;;;;;;;;;;5110202;28;20738;-43
2021/03/10 11:35:29;;;;;;;20.87;18.47;;;;;;;;;;5110261;28;20242;-42
2021/03/10 11:37:55;;;;;;;21.00;18.17;;;;;;;;;;5110332;28;20210;-43
2021/03/10 11:40:20;;;;;;;21.57;18.93;;;;;;;;;;5110681;28;20189;-42
2021/03/10 11:42:45;;;;;;;20.47;18.37;;;;;;;;;;5109353;28;20166;-43
2021/03/10 11:45:11;;;;;;;19.70;17.70;;;;;;;;;;5107200;28;20519;-43
2021/03/10 11:47:36;;;;;;;20.07;18.03;;;;;;;;;;5089644;28;20213;-42
2021/03/10 11:50:02;;;;;;;19.43;17.40;;;;;;;;;;5108416;28;20627;-43
2021/03/10 11:52:28;;;;;;;21.90;17.70;;;;;;;;;;5105684;28;20178;-48
2021/03/10 11:54:53;;;;;;;21.90;18.87;;;;;;;;;;5104844;28;20643;-43
2021/03/10 11:57:18;;;;;;;23.77;20.40;;;;;;;;;;5106593;28;20180;-43
2021/03/10 11:59:43;;;;;;;20.65;18.25;;;;;;;;;;5103272;28;20205;-43
2021/03/10 12:02:08;;;;;;;22.63;17.27;;;;;;;;;;5107667;28;20173;-44
2021/03/10 12:04:34;;;;;;;21.07;18.87;;;;;;;;;;5107885;28;20164;-47
2021/03/10 12:06:59;;;;;;;20.73;18.37;;;;;;;;;;5107538;28;20168;-44
2021/03/10 12:09:24;;;;;;;19.97;17.83;;;;;;;;;;5102977;28;20185;-43
2021/03/10 12:11:49;;;;;;;20.27;18.17;;;;;;;;;;5106834;28;20182;-41
2021/03/10 12:14:14;;;;;;;20.07;17.90;;;;;;;;;;5109249;28;20173;-42
2021/03/10 12:16:40;;;;;;;21.90;18.10;;;;;;;;;;5110747;28;20170;-43
2021/03/10 12:19:05;;;;;;;19.93;17.83;;;;;;;;;;5110572;28;20564;-43
2021/03/10 12:21:30;;;;;;;20.10;17.40;;;;;;;;;;5109780;28;20173;-43
2021/03/10 12:23:56;;;;;;;20.97;17.97;;;;;;;;;;5110277;28;20258;-43
2021/03/10 12:26:21;;;;;;;20.47;18.23;;;;;;;;;;5108896;28;20244;-43
2021/03/10 12:28:46;;;;;;;21.60;18.10;;;;;;;;;;5110521;28;20177;-43
2021/03/10 12:31:11;;;;;;;19.70;17.47;;;;;;;;;;5110089;28;20189;-42
2021/03/10 12:33:36;;;;;;;21.23;18.02;;;;;;;;;;5110648;28;20202;-43
2021/03/10 12:36:01;;;;;;;20.65;18.42;;;;;;;;;;5109367;28;20183;-43
2021/03/10 12:38:27;;;;;;;19.93;17.93;;;;;;;;;;5108299;28;20206;-45
2021/03/10 12:40:52;;;;;;;20.83;18.63;;;;;;;;;;5107617;28;20211;-43
2021/03/10 12:43:17;;;;;;;19.93;17.70;;;;;;;;;;5109809;28;20184;-43
2021/03/10 12:45:43;;;;;;;21.03;18.77;;;;;;;;;;5109621;28;20919;-43
2021/03/10 12:48:08;;;;;;;20.20;17.93;;;;;;;;;;5110847;28;20257;-43
2021/03/10 12:50:33;;;;;;;19.40;17.40;;;;;;;;;;5110259;28;20173;-43
2021/03/10 12:52:58;;;;;;;21.90;19.43;;;;;;;;;;5109952;28;20218;-43
2021/03/10 12:55:23;;;;;;;21.48;18.58;;;;;;;;;;5109507;28;20213;-43
2021/03/10 12:57:49;;;;;;;21.30;18.50;;;;;;;;;;5110266;28;20227;-44
2021/03/10 13:00:15;;;;;;;20.02;17.85;;;;;;;;;;5110418;28;20176;-43
2021/03/10 13:02:40;;;;;;;20.67;18.47;;;;;;;;;;5110167;28;20174;-42
2021/03/10 13:05:06;;;;;;;18.50;16.60;;;;;;;;;;5110169;28;20598;-42
2021/03/10 13:07:31;;;;;;;18.03;16.13;;;;;;;;;;5109482;28;20176;-43
2021/03/10 13:09:57;;;;;;;18.73;16.83;;;;;;;;;;5110638;28;21107;-42
2021/03/10 13:12:22;;;;;;;19.77;17.20;;;;;;;;;;5109878;28;20176;-43
2021/03/10 13:14:47;;;;;;;19.30;17.40;;;;;;;;;;5109589;28;20172;-42
2021/03/10 13:17:13;;;;;;;17.02;15.23;;;;;;;;;;5109369;28;20205;-42
2021/03/10 13:19:38;;;;;;;19.43;17.30;;;;;;;;;;5109853;28;20203;-43
2021/03/10 13:22:03;;;;;;;18.07;16.07;;;;;;;;;;5109464;28;20595;-43
2021/03/10 13:24:28;;;;;;;21.20;18.10;;;;;;;;;;5109227;28;20174;-43
2021/03/10 13:26:54;;;;;;;18.73;16.83;;;;;;;;;;5107026;27;20181;-48
2021/03/10 13:29:19;;;;;;;18.15;16.25;;;;;;;;;;5108971;28;21008;-42
2021/03/10 13:31:44;;;;;;;19.53;16.83;;;;;;;;;;5110582;27;20681;-43
2021/03/10 13:34:09;;;;;;;19.80;17.70;;;;;;;;;;5108107;28;20323;-43
2021/03/10 13:36:34;;;;;;;19.13;17.13;;;;;;;;;;5106741;28;20180;-42
2021/03/10 13:39:00;;;;;;;19.40;17.23;;;;;;;;;;5109010;28;20205;-42
2021/03/10 13:41:25;;;;;;;19.40;17.30;;;;;;;;;;5107986;27;20716;-42
2021/03/10 13:43:50;;;;;;;19.20;17.20;;;;;;;;;;5108752;28;20199;-43
2021/03/10 13:46:15;;;;;;;17.98;16.17;;;;;;;;;;5108767;28;20268;-43
2021/03/10 13:48:40;;;;;;;17.30;15.47;;;;;;;;;;5108499;28;20180;-43
2021/03/10 13:51:06;;;;;;;19.30;17.30;;;;;;;;;;5108585;28;20175;-42
2021/03/10 13:53:31;;;;;;;21.07;17.50;;;;;;;;;;5107945;28;20216;-43
2021/03/10 13:55:56;;;;;;;17.63;15.83;;;;;;;;;;5108043;28;20179;-43
2021/03/10 13:58:21;;;;;;;20.13;16.93;;;;;;;;;;5108722;28;20658;-43
2021/03/10 14:00:47;;;;;;;22.33;19.97;;;;;;;;;;5107620;28;20180;-43
2021/03/10 14:03:12;;;;;;;21.43;19.13;;;;;;;;;;5097193;28;20186;-43
2021/03/10 14:05:37;;;;;;;19.70;17.70;;;;;;;;;;5098936;28;20270;-44
2021/03/10 14:08:03;;;;;;;18.97;17.07;;;;;;;;;;5099632;28;20184;-43
2021/03/10 14:10:28;;;;;;;19.30;16.20;;;;;;;;;;5105759;28;20231;-46